Time;durP1;ratioP1;P1;durP2;ratioP2;P2;SDS_P1;SDS_P2;PMS_P1;PMS_P2;Temp;Humidity;BMP_temperature;BMP_pressure;BME280_temperature;BME280_humidity;BME280_pressure;Samples;Min_cycle;Max_cycle;Signal;HPM_P1;HPM_P2
2020/03/18 00:02:03;;;;;;;4.22;3.81;;;;;;;19.73;41.01;101882.91;;;;-52
2020/03/18 00:05:04;;;;;;;3.75;3.44;;;;;;;19.72;41.06;101880.09;;;;-51
2020/03/18 00:08:03;;;;;;;4.05;3.70;;;;;;;19.71;41.04;101881.59;;;;-51
2020/03/18 00:11:04;;;;;;;4.73;3.73;;;;;;;19.70;41.05;101881.02;;;;-51
2020/03/18 00:14:03;;;;;;;4.41;3.59;;;;;;;19.69;41.05;101876.65;;;;-52
2020/03/18 00:17:04;;;;;;;4.01;3.66;;;;;;;19.67;41.08;101874.11;;;;-52
2020/03/18 00:20:04;;;;;;;3.98;3.60;;;;;;;19.67;41.08;101877.13;;;;-52
2020/03/18 00:23:03;;;;;;;3.83;3.49;;;;;;;19.65;41.06;101875.14;;;;-51
2020/03/18 00:26:03;;;;;;;4.14;3.74;;;;;;;19.64;41.01;101871.89;;;;-52
2020/03/18 00:29:03;;;;;;;4.63;3.83;;;;;;;19.63;41.10;101872.16;;;;-52
2020/03/18 00:32:03;;;;;;;3.95;3.62;;;;;;;19.63;41.05;101874.58;;;;-53
2020/03/18 00:35:04;;;;;;;3.91;3.61;;;;;;;19.62;41.05;101871.27;;;;-52
2020/03/18 00:38:54;;;;;;;3.91;3.61;;;;;;;19.60;41.06;101864.09;;;;-52
2020/03/18 00:42:03;;;;;;;3.86;3.56;;;;;;;19.59;41.06;101864.79;;;;-52
2020/03/18 00:45:03;;;;;;;4.12;3.47;;;;;;;19.58;41.03;101868.48;;;;-51
2020/03/18 00:48:04;;;;;;;4.20;3.80;;;;;;;19.56;41.09;101865.11;;;;-52
2020/03/18 00:51:04;;;;;;;4.15;3.68;;;;;;;19.56;41.08;101859.06;;;;-52
2020/03/18 00:54:04;;;;;;;4.02;3.63;;;;;;;19.55;41.09;101858.66;;;;-51
2020/03/18 00:57:04;;;;;;;4.31;3.61;;;;;;;19.54;41.07;101853.98;;;;-52
2020/03/18 01:00:04;;;;;;;4.01;3.61;;;;;;;19.53;41.08;101848.98;;;;-52
2020/03/18 01:03:03;;;;;;;4.00;3.60;;;;;;;19.52;41.08;101850.10;;;;-52
2020/03/18 01:06:03;;;;;;;4.57;3.77;;;;;;;19.51;41.07;101851.19;;;;-51
2020/03/18 01:09:03;;;;;;;4.03;3.63;;;;;;;19.50;41.05;101846.78;;;;-52
2020/03/18 01:12:03;;;;;;;3.97;3.63;;;;;;;19.49;41.04;101845.19;;;;-52
2020/03/18 01:15:04;;;;;;;4.15;3.63;;;;;;;19.48;41.07;101842.05;;;;-52
2020/03/18 01:18:04;;;;;;;4.03;3.63;;;;;;;19.47;41.13;101834.28;;;;-52
2020/03/18 01:21:04;;;;;;;4.76;3.85;;;;;;;19.46;41.08;101833.54;;;;-52
2020/03/18 01:24:04;;;;;;;4.09;3.79;;;;;;;19.45;41.07;101831.70;;;;-52
2020/03/18 01:27:03;;;;;;;4.10;3.71;;;;;;;19.44;41.11;101837.00;;;;-52
2020/03/18 01:30:04;;;;;;;4.21;3.81;;;;;;;19.44;41.07;101842.23;;;;-51
2020/03/18 01:33:03;;;;;;;4.15;3.68;;;;;;;19.42;41.15;101846.01;;;;-52
2020/03/18 01:36:03;;;;;;;3.73;3.43;;;;;;;19.41;41.14;101844.27;;;;-52
2020/03/18 01:39:04;;;;;;;4.11;3.71;;;;;;;19.40;41.18;101843.80;;;;-52
2020/03/18 01:42:03;;;;;;;3.95;3.60;;;;;;;19.39;41.16;101836.53;;;;-52
2020/03/18 01:45:03;;;;;;;4.16;3.76;;;;;;;19.39;41.18;101836.70;;;;-52
2020/03/18 01:48:04;;;;;;;3.87;3.51;;;;;;;19.38;41.18;101836.30;;;;-52
2020/03/18 01:51:03;;;;;;;4.03;3.64;;;;;;;19.37;41.11;101827.80;;;;-52
2020/03/18 01:54:03;;;;;;;4.00;3.60;;;;;;;19.35;41.12;101822.09;;;;-52
2020/03/18 01:57:03;;;;;;;3.93;3.55;;;;;;;19.34;41.14;101824.30;;;;-52
2020/03/18 02:00:04;;;;;;;4.05;3.68;;;;;;;19.34;41.12;101824.70;;;;-51
2020/03/18 02:03:04;;;;;;;3.90;3.47;;;;;;;19.33;41.14;101824.47;;;;-51
2020/03/18 02:06:04;;;;;;;4.15;3.75;;;;;;;19.32;41.19;101820.66;;;;-52
2020/03/18 02:09:03;;;;;;;4.08;3.68;;;;;;;19.31;41.21;101817.73;;;;-52
2020/03/18 02:12:04;;;;;;;3.97;3.58;;;;;;;19.30;41.16;101814.32;;;;-52
2020/03/18 02:15:03;;;;;;;4.02;3.62;;;;;;;19.30;41.12;101814.94;;;;-52
2020/03/18 02:18:06;;;;;;;3.97;3.57;;;;;;;19.29;41.15;101811.30;;;;-52
2020/03/18 02:21:26;;;;;;;4.11;3.71;;;;;;;19.29;41.16;101807.17;;;;-52
2020/03/18 02:24:04;;;;;;;3.83;3.53;;;;;;;19.27;41.20;101813.16;;;;-52
2020/03/18 02:27:04;;;;;;;3.71;3.41;;;;;;;19.27;41.19;101809.66;;;;-52
2020/03/18 02:30:04;;;;;;;4.01;3.65;;;;;;;19.26;41.13;101808.51;;;;-52
2020/03/18 02:33:03;;;;;;;3.95;3.57;;;;;;;19.25;41.24;101809.45;;;;-51
2020/03/18 02:36:03;;;;;;;4.27;3.67;;;;;;;19.24;41.15;101811.13;;;;-52
2020/03/18 02:39:03;;;;;;;3.89;3.48;;;;;;;19.23;41.19;101809.73;;;;-52
2020/03/18 02:43:04;;;;;;;3.79;3.49;;;;;;;19.23;41.16;101809.03;;;;-52
2020/03/18 02:46:03;;;;;;;3.89;3.59;;;;;;;19.21;41.20;101806.85;;;;-52
2020/03/18 02:49:03;;;;;;;4.08;3.68;;;;;;;19.20;41.19;101805.28;;;;-52
2020/03/18 02:52:03;;;;;;;3.88;3.50;;;;;;;19.21;41.17;101809.57;;;;-52
2020/03/18 02:55:04;;;;;;;4.47;3.60;;;;;;;19.20;41.19;101810.36;;;;-52
2020/03/18 02:58:03;;;;;;;3.99;3.63;;;;;;;19.19;41.18;101807.81;;;;-52
2020/03/18 03:01:04;;;;;;;3.81;3.45;;;;;;;19.18;41.15;101812.34;;;;-52
2020/03/18 03:04:04;;;;;;;3.89;3.48;;;;;;;19.18;41.24;101812.16;;;;-52
2020/03/18 03:07:04;;;;;;;4.14;3.74;;;;;;;19.17;41.22;101806.17;;;;-52
2020/03/18 03:10:03;;;;;;;3.82;3.52;;;;;;;19.16;41.16;101804.77;;;;-51
2020/03/18 03:13:04;;;;;;;3.84;3.54;;;;;;;19.16;41.20;101811.75;;;;-51
2020/03/18 03:16:04;;;;;;;3.93;3.57;;;;;;;19.16;41.25;101811.30;;;;-52
2020/03/18 03:19:03;;;;;;;3.89;3.59;;;;;;;19.15;41.21;101816.70;;;;-52
2020/03/18 03:22:03;;;;;;;4.12;3.52;;;;;;;19.14;41.20;101821.77;;;;-52
2020/03/18 03:25:03;;;;;;;3.85;3.55;;;;;;;19.13;41.26;101817.59;;;;-51
2020/03/18 03:28:04;;;;;;;3.91;3.51;;;;;;;19.13;41.22;101820.53;;;;-48
2020/03/18 03:31:04;;;;;;;3.97;3.55;;;;;;;19.12;41.24;101822.83;;;;-49
2020/03/18 03:34:04;;;;;;;4.73;3.80;;;;;;;19.11;41.21;101827.06;;;;-47
2020/03/18 03:37:04;;;;;;;3.95;3.62;;;;;;;19.10;41.21;101829.11;;;;-48
2020/03/18 03:40:04;;;;;;;3.86;3.56;;;;;;;19.10;41.24;101825.98;;;;-48
2020/03/18 03:43:04;;;;;;;3.89;3.57;;;;;;;19.09;41.20;101828.09;;;;-47
2020/03/18 03:46:04;;;;;;;3.99;3.65;;;;;;;19.08;41.23;101826.30;;;;-49
2020/03/18 03:49:07;;;;;;;3.83;3.53;;;;;;;19.09;41.23;101827.27;;;;-49
2020/03/18 03:52:05;;;;;;;3.83;3.53;;;;;;;19.08;41.23;101825.16;;;;-48
2020/03/18 03:55:04;;;;;;;3.83;3.53;;;;;;;19.06;41.17;101825.33;;;;-48
2020/03/18 03:58:04;;;;;;;3.77;3.47;;;;;;;19.07;41.16;101827.52;;;;-49
2020/03/18 04:01:04;;;;;;;3.69;3.39;;;;;;;19.05;41.23;101827.94;;;;-48
2020/03/18 04:04:04;;;;;;;3.91;3.59;;;;;;;19.06;41.22;101831.30;;;;-48
2020/03/18 04:07:04;;;;;;;3.77;3.47;;;;;;;19.06;41.18;101833.14;;;;-48
2020/03/18 04:10:04;;;;;;;3.74;3.44;;;;;;;19.05;41.23;101835.52;;;;-48
2020/03/18 04:13:04;;;;;;;3.87;3.51;;;;;;;19.04;41.21;101836.52;;;;-48
2020/03/18 04:16:04;;;;;;;3.97;3.61;;;;;;;19.04;41.21;101837.80;;;;-49
2020/03/18 04:19:04;;;;;;;3.94;3.64;;;;;;;19.03;41.21;101835.06;;;;-48
2020/03/18 04:22:04;;;;;;;4.04;3.68;;;;;;;19.02;41.19;101835.94;;;;-49
2020/03/18 04:25:04;;;;;;;4.06;3.66;;;;;;;19.02;41.21;101837.26;;;;-48
2020/03/18 04:28:04;;;;;;;3.97;3.57;;;;;;;19.02;41.22;101833.41;;;;-48
2020/03/18 04:31:04;;;;;;;3.79;3.49;;;;;;;19.01;41.25;101830.91;;;;-49
2020/03/18 04:34:04;;;;;;;3.61;3.31;;;;;;;19.00;41.20;101828.83;;;;-48
2020/03/18 04:37:04;;;;;;;3.73;3.43;;;;;;;18.99;41.22;101828.70;;;;-48
2020/03/18 04:40:04;;;;;;;3.87;3.57;;;;;;;18.99;41.22;101833.03;;;;-49
2020/03/18 04:43:04;;;;;;;3.80;3.50;;;;;;;18.98;41.21;101836.15;;;;-48
2020/03/18 04:46:04;;;;;;;3.91;3.61;;;;;;;18.98;41.20;101846.44;;;;-49
2020/03/18 04:52:04;;;;;;;4.75;3.84;;;;;;;18.99;41.24;101836.44;;;;-48
2020/03/18 04:55:04;;;;;;;3.83;3.47;;;;;;;18.99;41.25;101835.88;;;;-49
2020/03/18 04:58:04;;;;;;;3.58;3.28;;;;;;;19.00;41.17;101838.02;;;;-48
2020/03/18 05:01:04;;;;;;;3.85;3.55;;;;;;;19.01;41.17;101830.84;;;;-48
2020/03/18 05:04:04;;;;;;;3.73;3.43;;;;;;;19.04;41.18;101832.93;;;;-48
2020/03/18 05:07:04;;;;;;;3.91;3.48;;;;;;;19.06;41.20;101828.88;;;;-48
2020/03/18 05:10:04;;;;;;;3.75;3.45;;;;;;;19.08;41.12;101828.03;;;;-48
2020/03/18 05:13:04;;;;;;;3.56;3.26;;;;;;;19.13;41.15;101823.41;;;;-47
2020/03/18 05:16:04;;;;;;;3.79;3.40;;;;;;;19.17;41.13;101826.22;;;;-48
2020/03/18 05:19:04;;;;;;;3.63;3.33;;;;;;;19.21;41.11;101824.14;;;;-49
2020/03/18 05:22:04;;;;;;;3.71;3.37;;;;;;;19.24;41.26;101824.30;;;;-48
2020/03/18 05:25:04;;;;;;;3.60;3.30;;;;;;;19.30;41.14;101824.08;;;;-48
2020/03/18 05:28:03;;;;;;;3.42;3.12;;;;;;;19.33;41.10;101824.86;;;;-48
2020/03/18 05:31:04;;;;;;;3.47;3.17;;;;;;;19.36;41.15;101820.81;;;;-48
2020/03/18 05:34:04;;;;;;;3.67;3.37;;;;;;;19.40;41.12;101826.27;;;;-47
2020/03/18 05:37:03;;;;;;;3.60;3.30;;;;;;;19.42;41.09;101822.33;;;;-48
2020/03/18 05:40:04;;;;;;;3.27;2.99;;;;;;;19.47;41.11;101824.28;;;;-48
2020/03/18 05:43:04;;;;;;;3.67;3.33;;;;;;;19.50;41.27;101824.75;;;;-48
2020/03/18 05:46:04;;;;;;;3.37;3.07;;;;;;;19.54;41.20;101821.47;;;;-49
2020/03/18 05:49:04;;;;;;;3.19;2.97;;;;;;;19.56;41.16;101823.38;;;;-48
2020/03/18 05:52:04;;;;;;;3.51;3.16;;;;;;;19.61;41.25;101824.22;;;;-48
2020/03/18 05:55:04;;;;;;;3.35;3.05;;;;;;;19.64;41.18;101821.06;;;;-48
2020/03/18 05:58:04;;;;;;;3.38;3.08;;;;;;;19.68;41.12;101823.95;;;;-48
2020/03/18 06:01:04;;;;;;;3.97;3.26;;;;;;;19.70;41.28;101823.02;;;;-48
2020/03/18 06:04:04;;;;;;;3.40;3.10;;;;;;;19.73;41.24;101821.98;;;;-48
2020/03/18 06:07:04;;;;;;;3.26;2.96;;;;;;;19.75;41.08;101825.88;;;;-48
2020/03/18 06:10:04;;;;;;;3.31;3.01;;;;;;;19.78;41.14;101830.59;;;;-48
2020/03/18 06:13:03;;;;;;;3.41;3.12;;;;;;;19.80;41.17;101831.05;;;;-48
2020/03/18 06:16:04;;;;;;;3.59;3.06;;;;;;;19.83;41.14;101828.62;;;;-49
2020/03/18 06:19:04;;;;;;;3.38;3.08;;;;;;;19.83;41.08;101826.56;;;;-48
2020/03/18 06:22:04;;;;;;;3.35;3.05;;;;;;;19.85;41.17;101828.08;;;;-48
2020/03/18 06:25:04;;;;;;;3.25;2.95;;;;;;;19.87;41.08;101830.63;;;;-48
2020/03/18 06:28:04;;;;;;;3.40;3.10;;;;;;;19.89;41.05;101826.00;;;;-48
2020/03/18 06:31:04;;;;;;;3.42;3.12;;;;;;;19.90;41.04;101833.09;;;;-49
2020/03/18 06:34:04;;;;;;;5.35;4.04;;;;;;;19.86;40.88;101840.05;;;;-46
2020/03/18 06:37:04;;;;;;;9.23;7.66;;;;;;;19.79;40.65;101846.91;;;;-45
2020/03/18 06:40:03;;;;;;;10.99;9.13;;;;;;;19.71;40.46;101849.30;;;;-46
2020/03/18 06:43:03;;;;;;;12.53;8.75;;;;;;;19.69;40.62;101852.90;;;;-46
2020/03/18 06:46:04;;;;;;;7.95;6.92;;;;;;;19.72;40.86;101849.75;;;;-47
2020/03/18 06:49:04;;;;;;;10.78;6.64;;;;;;;19.76;40.78;101850.13;;;;-46
2020/03/18 06:52:04;;;;;;;7.30;6.12;;;;;;;19.79;40.84;101848.25;;;;-47
2020/03/18 06:55:04;;;;;;;5.91;5.33;;;;;;;19.81;40.76;101846.61;;;;-47
2020/03/18 06:58:04;;;;;;;6.19;5.12;;;;;;;19.83;40.66;101845.40;;;;-46
2020/03/18 07:01:04;;;;;;;5.64;4.72;;;;;;;19.86;40.73;101845.75;;;;-46
2020/03/18 07:04:04;;;;;;;5.04;4.53;;;;;;;19.87;40.71;101845.55;;;;-47
2020/03/18 07:07:04;;;;;;;6.55;4.36;;;;;;;19.88;40.70;101846.67;;;;-46
2020/03/18 07:10:04;;;;;;;5.43;4.01;;;;;;;19.90;40.66;101852.90;;;;-47
2020/03/18 07:13:03;;;;;;;5.28;4.10;;;;;;;19.91;40.65;101850.11;;;;-46
2020/03/18 07:16:04;;;;;;;4.62;3.91;;;;;;;19.92;40.64;101852.86;;;;-46
2020/03/18 07:19:04;;;;;;;4.32;3.80;;;;;;;19.92;40.59;101852.80;;;;-46
2020/03/18 07:22:04;;;;;;;4.57;3.80;;;;;;;19.92;40.54;101856.48;;;;-46
2020/03/18 07:25:04;;;;;;;4.11;3.68;;;;;;;19.93;40.58;101862.09;;;;-47
2020/03/18 07:28:04;;;;;;;4.53;3.55;;;;;;;19.95;40.63;101861.55;;;;-46
2020/03/18 07:31:04;;;;;;;4.32;3.77;;;;;;;19.96;40.66;101863.02;;;;-46
2020/03/18 07:34:04;;;;;;;3.70;3.40;;;;;;;19.98;40.55;101861.19;;;;-46
2020/03/18 07:37:04;;;;;;;3.59;3.29;;;;;;;19.99;40.58;101864.48;;;;-47
2020/03/18 07:40:04;;;;;;;3.75;3.37;;;;;;;20.01;40.54;101867.30;;;;-46
2020/03/18 07:43:04;;;;;;;4.41;3.38;;;;;;;20.02;40.53;101874.06;;;;-46
2020/03/18 07:46:04;;;;;;;3.68;3.31;;;;;;;20.04;40.58;101877.44;;;;-46
2020/03/18 07:49:04;;;;;;;3.69;3.36;;;;;;;20.07;40.59;101877.92;;;;-46
2020/03/18 07:52:04;;;;;;;3.94;3.53;;;;;;;20.09;40.57;101878.37;;;;-46
2020/03/18 07:55:04;;;;;;;3.71;3.41;;;;;;;20.10;40.57;101883.65;;;;-46
2020/03/18 07:58:04;;;;;;;3.74;3.42;;;;;;;20.14;40.55;101880.61;;;;-46
2020/03/18 08:01:03;;;;;;;3.69;3.24;;;;;;;20.16;40.54;101876.03;;;;-47
2020/03/18 08:04:04;;;;;;;3.51;3.20;;;;;;;20.18;40.50;101879.68;;;;-47
2020/03/18 08:07:04;;;;;;;3.69;3.24;;;;;;;20.20;40.50;101873.27;;;;-46
2020/03/18 08:10:04;;;;;;;3.69;3.39;;;;;;;20.23;40.49;101871.34;;;;-47
2020/03/18 08:13:04;;;;;;;3.40;3.10;;;;;;;20.22;40.54;101866.98;;;;-46
2020/03/18 08:16:05;;;;;;;3.48;3.13;;;;;;;20.23;40.52;101865.53;;;;-47
2020/03/18 08:19:04;;;;;;;3.51;3.21;;;;;;;20.23;40.55;101865.02;;;;-46
2020/03/18 08:22:04;;;;;;;3.29;2.99;;;;;;;20.24;40.50;101863.24;;;;-46
2020/03/18 08:25:04;;;;;;;3.37;3.01;;;;;;;20.25;40.51;101857.94;;;;-46
2020/03/18 08:28:25;;;;;;;3.23;2.93;;;;;;;20.27;40.52;101858.80;;;;-47
2020/03/18 08:31:05;;;;;;;3.31;3.01;;;;;;;20.28;40.43;101856.79;;;;-47
2020/03/18 08:34:04;;;;;;;3.22;2.93;;;;;;;20.30;40.47;101858.82;;;;-46
2020/03/18 08:37:04;;;;;;;4.11;3.17;;;;;;;20.31;40.42;101859.72;;;;-46
2020/03/18 08:40:04;;;;;;;3.35;3.05;;;;;;;20.33;40.42;101861.14;;;;-46
2020/03/18 08:43:03;;;;;;;3.30;3.00;;;;;;;20.33;40.43;101859.02;;;;-47
2020/03/18 08:46:04;;;;;;;3.30;3.00;;;;;;;20.34;40.46;101852.70;;;;-46
2020/03/18 08:49:03;;;;;;;3.27;2.97;;;;;;;20.36;40.40;101847.34;;;;-46
2020/03/18 08:52:06;;;;;;;3.35;3.05;;;;;;;20.35;40.41;101845.95;;;;-46
2020/03/18 08:55:04;;;;;;;3.37;3.07;;;;;;;20.36;40.41;101844.34;;;;-46
2020/03/18 08:58:04;;;;;;;3.29;2.99;;;;;;;20.37;40.39;101841.83;;;;-47
2020/03/18 09:01:04;;;;;;;3.45;2.89;;;;;;;20.39;40.36;101840.27;;;;-46
2020/03/18 09:04:03;;;;;;;3.28;2.98;;;;;;;20.39;40.32;101834.63;;;;-46
2020/03/18 09:07:04;;;;;;;3.35;3.05;;;;;;;20.40;40.31;101831.61;;;;-46
2020/03/18 09:10:04;;;;;;;3.18;2.88;;;;;;;20.41;40.29;101830.55;;;;-46
2020/03/18 09:13:04;;;;;;;3.12;2.83;;;;;;;20.42;40.44;101827.59;;;;-51
2020/03/18 09:16:03;;;;;;;4.81;3.10;;;;;;;20.44;41.31;101823.97;;;;-50
2020/03/18 09:19:03;;;;;;;3.41;3.11;;;;;;;20.45;41.12;101824.66;;;;-50
2020/03/18 09:22:03;;;;;;;3.39;3.01;;;;;;;20.46;41.10;101824.48;;;;-57
2020/03/18 09:25:04;;;;;;;3.34;3.04;;;;;;;20.48;41.28;101825.63;;;;-53
2020/03/18 09:28:03;;;;;;;3.67;3.29;;;;;;;20.50;41.09;101824.13;;;;-54
2020/03/18 09:31:03;;;;;;;3.51;3.21;;;;;;;20.51;40.95;101821.78;;;;-55
2020/03/18 09:34:03;;;;;;;4.12;3.13;;;;;;;20.51;40.98;101823.23;;;;-53
2020/03/18 09:37:03;;;;;;;3.63;3.08;;;;;;;20.54;41.37;101820.74;;;;-52
2020/03/18 09:40:03;;;;;;;4.15;3.10;;;;;;;20.54;41.16;101822.02;;;;-57
2020/03/18 09:43:04;;;;;;;3.45;2.93;;;;;;;20.55;41.16;101820.75;;;;-51
2020/03/18 09:46:04;;;;;;;3.39;3.09;;;;;;;20.57;41.41;101820.09;;;;-50
2020/03/18 09:49:04;;;;;;;3.41;3.11;;;;;;;20.58;41.16;101819.60;;;;-53
2020/03/18 09:52:04;;;;;;;3.50;3.06;;;;;;;20.59;41.36;101813.55;;;;-55
2020/03/18 09:55:04;;;;;;;4.67;3.13;;;;;;;20.62;41.64;101816.54;;;;-50
2020/03/18 09:58:03;;;;;;;4.99;3.15;;;;;;;20.62;41.53;101812.46;;;;-54
2020/03/18 10:01:03;;;;;;;10.41;2.97;;;;;;;20.63;41.61;101807.48;;;;-55
2020/03/18 10:04:03;;;;;;;3.87;2.84;;;;;;;20.67;41.69;101805.43;;;;-55
2020/03/18 10:07:04;;;;;;;3.19;2.89;;;;;;;20.69;41.63;101807.02;;;;-57
2020/03/18 10:10:03;;;;;;;3.12;2.83;;;;;;;20.71;41.40;101799.56;;;;-50
2020/03/18 10:13:04;;;;;;;3.11;2.89;;;;;;;20.74;41.68;101794.52;;;;-55
2020/03/18 10:16:03;;;;;;;3.10;2.80;;;;;;;20.76;41.40;101790.71;;;;-49
2020/03/18 10:19:03;;;;;;;3.61;2.91;;;;;;;20.79;41.90;101790.66;;;;-51
2020/03/18 10:22:03;;;;;;;3.25;2.94;;;;;;;20.79;41.06;101788.98;;;;-51
2020/03/18 10:25:04;;;;;;;5.11;2.90;;;;;;;20.83;42.27;101784.62;;;;-51
2020/03/18 10:28:04;;;;;;;6.62;3.00;;;;;;;20.85;42.22;101785.19;;;;-50
2020/03/18 10:31:03;;;;;;;2.98;2.70;;;;;;;20.84;41.37;101782.28;;;;-50
2020/03/18 10:34:03;;;;;;;2.82;2.57;;;;;;;20.84;41.28;101781.78;;;;-50
2020/03/18 10:37:03;;;;;;;6.48;2.78;;;;;;;20.82;40.73;101777.34;;;;-49
2020/03/18 10:40:03;;;;;;;3.62;2.74;;;;;;;20.81;40.62;101773.58;;;;-50
2020/03/18 10:43:03;;;;;;;3.55;2.75;;;;;;;20.82;40.76;101771.86;;;;-49
2020/03/18 10:46:04;;;;;;;3.46;2.68;;;;;;;20.82;40.76;101774.10;;;;-50
2020/03/18 10:49:04;;;;;;;2.96;2.69;;;;;;;20.81;40.49;101768.84;;;;-50
2020/03/18 10:52:03;;;;;;;3.47;2.73;;;;;;;20.80;40.58;101764.71;;;;-50
2020/03/18 10:55:03;;;;;;;3.29;2.76;;;;;;;20.80;40.47;101760.42;;;;-50
2020/03/18 10:58:03;;;;;;;4.00;2.75;;;;;;;20.81;40.49;101757.42;;;;-50
2020/03/18 11:01:04;;;;;;;5.16;2.80;;;;;;;20.80;40.45;101754.78;;;;-50
2020/03/18 11:04:03;;;;;;;2.98;2.36;;;;;;;20.81;40.89;101748.69;;;;-56
2020/03/18 11:07:04;;;;;;;3.13;2.80;;;;;;;20.80;41.40;101745.66;;;;-52
2020/03/18 11:10:03;;;;;;;4.44;2.96;;;;;;;20.82;41.51;101738.84;;;;-52
2020/03/18 11:13:03;;;;;;;3.69;2.67;;;;;;;20.82;40.80;101735.48;;;;-52
2020/03/18 11:16:03;;;;;;;3.21;2.68;;;;;;;20.82;40.62;101729.94;;;;-52
2020/03/18 11:19:03;;;;;;;3.14;2.79;;;;;;;20.82;40.57;101727.80;;;;-52
2020/03/18 11:22:04;;;;;;;3.46;2.69;;;;;;;20.83;40.55;101721.09;;;;-53
2020/03/18 11:25:03;;;;;;;4.01;2.63;;;;;;;20.81;40.43;101718.78;;;;-52
2020/03/18 11:28:04;;;;;;;4.72;2.60;;;;;;;20.82;40.36;101714.43;;;;-52
2020/03/18 11:31:03;;;;;;;3.13;2.69;;;;;;;20.81;40.38;101706.75;;;;-53
2020/03/18 11:34:03;;;;;;;4.10;2.69;;;;;;;20.81;40.30;101702.17;;;;-52
2020/03/18 11:37:03;;;;;;;2.80;2.60;;;;;;;20.81;40.32;101697.41;;;;-52
2020/03/18 11:40:03;;;;;;;2.93;2.63;;;;;;;20.81;40.27;101694.77;;;;-53
2020/03/18 11:43:04;;;;;;;2.77;2.48;;;;;;;20.81;40.25;101686.27;;;;-53
2020/03/18 11:46:04;;;;;;;2.82;2.62;;;;;;;20.81;40.22;101682.13;;;;-53
2020/03/18 11:49:04;;;;;;;3.11;2.63;;;;;;;20.82;40.61;101683.26;;;;-49
2020/03/18 11:52:03;;;;;;;5.87;2.67;;;;;;;20.82;41.51;101672.05;;;;-55
2020/03/18 11:55:03;;;;;;;2.69;2.38;;;;;;;20.85;41.55;101668.16;;;;-52
2020/03/18 11:58:03;;;;;;;4.02;2.62;;;;;;;20.84;41.53;101663.90;;;;-57
2020/03/18 12:02:04;;;;;;;3.05;2.45;;;;;;;20.85;41.75;101659.09;;;;-51
2020/03/18 12:05:03;;;;;;;2.60;2.40;;;;;;;20.84;41.11;101652.86;;;;-51
2020/03/18 12:08:03;;;;;;;3.07;2.53;;;;;;;20.84;40.96;101652.08;;;;-51
2020/03/18 12:11:03;;;;;;;3.71;2.48;;;;;;;20.84;40.94;101650.97;;;;-51
2020/03/18 12:14:03;;;;;;;5.28;2.31;;;;;;;20.83;40.71;101649.05;;;;-52
2020/03/18 12:17:03;;;;;;;2.53;2.33;;;;;;;20.83;40.69;101641.17;;;;-51
2020/03/18 12:20:03;;;;;;;2.82;2.42;;;;;;;20.82;40.64;101638.64;;;;-51
2020/03/18 12:23:03;;;;;;;3.43;2.40;;;;;;;20.81;40.55;101625.09;;;;-51
2020/03/18 12:26:04;;;;;;;2.77;2.41;;;;;;;20.82;40.56;101627.05;;;;-52
2020/03/18 12:29:03;;;;;;;3.43;2.58;;;;;;;20.82;40.52;101624.38;;;;-52
2020/03/18 12:32:03;;;;;;;2.71;2.39;;;;;;;20.81;40.53;101620.22;;;;-51
2020/03/18 12:35:03;;;;;;;2.63;2.43;;;;;;;20.81;40.49;101617.20;;;;-51
2020/03/18 12:38:03;;;;;;;2.35;2.15;;;;;;;20.81;40.49;101614.19;;;;-51
2020/03/18 12:41:03;;;;;;;4.15;2.31;;;;;;;20.82;40.46;101611.33;;;;-51
2020/03/18 12:44:03;;;;;;;2.43;2.20;;;;;;;20.81;40.45;101609.64;;;;-51
2020/03/18 12:47:03;;;;;;;2.94;2.25;;;;;;;20.81;40.45;101605.78;;;;-51
2020/03/18 12:50:04;;;;;;;2.95;2.40;;;;;;;20.81;40.38;101603.27;;;;-51
2020/03/18 12:53:03;;;;;;;2.50;2.30;;;;;;;20.80;40.39;101600.84;;;;-51
2020/03/18 12:56:03;;;;;;;2.47;2.27;;;;;;;20.80;40.39;101598.00;;;;-51
2020/03/18 12:59:04;;;;;;;3.75;2.39;;;;;;;20.81;40.92;101593.92;;;;-50
2020/03/18 13:02:03;;;;;;;2.50;2.30;;;;;;;20.83;40.84;101589.95;;;;-51
2020/03/18 13:05:03;;;;;;;2.59;2.30;;;;;;;20.83;40.72;101586.31;;;;-52
2020/03/18 13:08:03;;;;;;;6.57;2.55;;;;;;;20.86;41.27;101586.61;;;;-51
2020/03/18 13:11:03;;;;;;;6.04;2.30;;;;;;;20.87;41.71;101585.42;;;;-50
2020/03/18 13:14:03;;;;;;;5.67;2.46;;;;;;;20.88;41.42;101582.02;;;;-52
2020/03/18 13:17:04;;;;;;;2.87;2.15;;;;;;;20.88;41.17;101579.61;;;;-52
2020/03/18 13:20:03;;;;;;;3.28;2.30;;;;;;;20.90;41.21;101579.72;;;;-57
2020/03/18 13:23:03;;;;;;;5.06;2.01;;;;;;;20.90;41.85;101572.67;;;;-56
2020/03/18 13:26:03;;;;;;;2.72;2.22;;;;;;;20.91;41.60;101568.69;;;;-55
2020/03/18 13:29:03;;;;;;;7.58;2.29;;;;;;;20.92;41.85;101568.69;;;;-55
2020/03/18 13:32:04;;;;;;;9.47;2.74;;;;;;;20.96;41.85;101565.44;;;;-49
2020/03/18 13:35:03;;;;;;;5.36;2.63;;;;;;;20.94;41.36;101564.67;;;;-49
2020/03/18 13:38:03;;;;;;;4.95;2.53;;;;;;;20.92;41.16;101558.56;;;;-49
2020/03/18 13:41:03;;;;;;;4.92;2.24;;;;;;;20.91;41.06;101556.70;;;;-50
2020/03/18 13:44:03;;;;;;;4.63;2.46;;;;;;;20.90;40.86;101555.09;;;;-49
2020/03/18 13:47:03;;;;;;;3.57;2.10;;;;;;;20.89;40.92;101548.99;;;;-49
2020/03/18 13:50:03;;;;;;;2.61;2.12;;;;;;;20.88;40.80;101544.78;;;;-49
2020/03/18 13:53:03;;;;;;;3.29;2.41;;;;;;;20.88;41.10;101543.84;;;;-51
2020/03/18 13:56:03;;;;;;;6.91;2.37;;;;;;;20.89;41.62;101542.66;;;;-52
2020/03/18 13:59:03;;;;;;;4.66;2.36;;;;;;;20.89;41.80;101542.48;;;;-51
2020/03/18 14:02:04;;;;;;;5.09;2.31;;;;;;;20.90;41.84;101540.42;;;;-51
2020/03/18 14:05:03;;;;;;;2.33;2.08;;;;;;;20.91;41.84;101536.61;;;;-51
2020/03/18 14:08:03;;;;;;;4.80;2.19;;;;;;;20.91;42.05;101535.78;;;;-53
2020/03/18 14:11:03;;;;;;;4.33;2.26;;;;;;;20.93;41.52;101532.13;;;;-53
2020/03/18 14:14:03;;;;;;;2.36;2.09;;;;;;;20.92;41.49;101526.61;;;;-50
2020/03/18 14:17:03;;;;;;;6.06;2.10;;;;;;;20.94;42.04;101524.81;;;;-53
2020/03/18 14:20:03;;;;;;;3.84;2.17;;;;;;;20.94;41.77;101517.80;;;;-51
2020/03/18 14:23:03;;;;;;;3.54;2.20;;;;;;;20.94;41.55;101516.24;;;;-51
2020/03/18 14:26:03;;;;;;;3.03;2.19;;;;;;;20.94;41.31;101513.62;;;;-51
2020/03/18 14:29:03;;;;;;;3.37;2.12;;;;;;;20.94;41.20;101509.58;;;;-51
2020/03/18 14:32:03;;;;;;;3.07;2.23;;;;;;;20.93;41.06;101507.11;;;;-50
2020/03/18 14:35:03;;;;;;;2.17;1.97;;;;;;;20.91;40.95;101498.51;;;;-49
2020/03/18 14:38:03;;;;;;;3.92;2.16;;;;;;;20.92;40.94;101499.11;;;;-51
2020/03/18 14:41:04;;;;;;;2.71;2.13;;;;;;;20.91;40.94;101504.37;;;;-45
2020/03/18 14:44:04;;;;;;;3.07;2.10;;;;;;;20.91;41.20;101499.00;;;;-52
2020/03/18 14:47:03;;;;;;;2.30;2.07;;;;;;;20.90;41.47;101494.92;;;;-51
2020/03/18 14:50:03;;;;;;;2.28;2.08;;;;;;;20.90;41.66;101490.39;;;;-52
2020/03/18 14:53:03;;;;;;;2.56;2.17;;;;;;;20.91;41.63;101488.94;;;;-50
2020/03/18 14:56:03;;;;;;;4.59;2.22;;;;;;;20.92;41.90;101491.34;;;;-51
2020/03/18 14:59:03;;;;;;;2.71;2.13;;;;;;;20.92;41.75;101494.03;;;;-50
2020/03/18 15:02:03;;;;;;;2.34;1.93;;;;;;;20.93;41.79;101492.28;;;;-50
2020/03/18 15:05:03;;;;;;;3.46;2.09;;;;;;;20.93;41.71;101485.52;;;;-45
2020/03/18 15:08:03;;;;;;;3.43;2.13;;;;;;;20.94;41.75;101488.77;;;;-54
2020/03/18 15:11:03;;;;;;;2.21;2.01;;;;;;;20.95;41.86;101479.81;;;;-44
2020/03/18 15:14:03;;;;;;;2.21;2.00;;;;;;;20.98;41.45;101481.03;;;;-47
2020/03/18 15:17:03;;;;;;;6.47;2.12;;;;;;;20.98;41.66;101477.13;;;;-43
2020/03/18 15:20:03;;;;;;;2.36;2.07;;;;;;;20.98;41.69;101478.13;;;;-45
2020/03/18 15:23:04;;;;;;;2.71;1.92;;;;;;;20.97;41.59;101471.73;;;;-47
2020/03/18 15:26:03;;;;;;;2.35;2.09;;;;;;;20.98;41.67;101465.97;;;;-47
2020/03/18 15:29:03;;;;;;;4.52;2.05;;;;;;;20.98;41.66;101463.11;;;;-44
2020/03/18 15:32:03;;;;;;;2.46;2.00;;;;;;;20.98;41.82;101460.43;;;;-49
2020/03/18 15:35:03;;;;;;;2.36;2.07;;;;;;;20.98;41.72;101460.54;;;;-46
2020/03/18 15:38:03;;;;;;;2.37;2.05;;;;;;;20.99;41.79;101462.33;;;;-50
2020/03/18 15:41:03;;;;;;;3.99;2.11;;;;;;;21.00;41.74;101458.34;;;;-48
2020/03/18 15:44:03;;;;;;;2.34;2.13;;;;;;;21.01;41.85;101458.85;;;;-47
2020/03/18 15:47:03;;;;;;;3.36;2.00;;;;;;;21.01;41.69;101457.23;;;;-48
2020/03/18 15:50:04;;;;;;;2.76;2.18;;;;;;;21.01;41.65;101458.81;;;;-51
2020/03/18 15:53:03;;;;;;;3.68;2.13;;;;;;;21.03;42.04;101460.09;;;;-49
2020/03/18 15:56:03;;;;;;;2.40;1.98;;;;;;;21.03;41.79;101464.50;;;;-48
2020/03/18 15:59:03;;;;;;;3.90;2.37;;;;;;;21.02;41.65;101451.23;;;;-46
2020/03/18 16:02:03;;;;;;;5.13;2.35;;;;;;;21.00;41.26;101450.73;;;;-45
2020/03/18 16:05:03;;;;;;;3.97;2.41;;;;;;;21.02;41.54;101450.30;;;;-48
2020/03/18 16:08:04;;;;;;;3.04;2.29;;;;;;;21.03;41.69;101446.83;;;;-46
2020/03/18 16:11:03;;;;;;;4.01;2.18;;;;;;;21.05;41.68;101447.04;;;;-48
2020/03/18 16:14:03;;;;;;;4.10;2.30;;;;;;;21.02;41.62;101448.83;;;;-57
2020/03/18 16:17:03;;;;;;;5.35;2.19;;;;;;;20.99;41.74;101448.16;;;;-62
2020/03/18 16:20:03;;;;;;;5.69;2.19;;;;;;;20.98;41.96;101446.22;;;;-51
2020/03/18 16:23:03;;;;;;;5.92;2.43;;;;;;;20.97;42.04;101443.86;;;;-50
2020/03/18 16:26:03;;;;;;;5.93;2.39;;;;;;;20.97;42.02;101441.13;;;;-51
2020/03/18 16:29:03;;;;;;;3.02;2.10;;;;;;;20.96;41.99;101434.46;;;;-51
2020/03/18 16:32:03;;;;;;;5.35;2.36;;;;;;;20.96;41.99;101434.86;;;;-50
2020/03/18 16:35:03;;;;;;;3.75;2.76;;;;;;;20.96;41.99;101434.11;;;;-53
2020/03/18 16:38:03;;;;;;;4.07;2.10;;;;;;;20.95;42.00;101438.94;;;;-51
2020/03/18 16:41:03;;;;;;;5.34;2.31;;;;;;;20.95;42.02;101440.12;;;;-52
2020/03/18 16:44:03;;;;;;;4.26;2.45;;;;;;;20.94;42.00;101439.15;;;;-52
2020/03/18 16:47:03;;;;;;;4.92;2.35;;;;;;;20.94;42.02;101441.67;;;;-56
2020/03/18 16:50:03;;;;;;;8.37;2.43;;;;;;;20.93;41.85;101438.50;;;;-56